sensor_id;sensor_type;location;lat;lon;timestamp;pressure;altitude;pressure_sealevel;temperature;humidity
57192;BME280;43052;52.588;13.396;2022-10-26T00:01:39;101376.09;;;7.99;81.87
57192;BME280;43052;52.588;13.396;2022-10-26T00:04:05;101379.56;;;8.00;81.96
57192;BME280;43052;52.588;13.396;2022-10-26T00:06:30;101384.84;;;8.05;81.80
57192;BME280;43052;52.588;13.396;2022-10-26T00:08:56;101378.63;;;7.95;81.72
57192;BME280;43052;52.588;13.396;2022-10-26T00:11:22;101395.25;;;8.03;81.68
57192;BME280;43052;52.588;13.396;2022-10-26T00:13:48;101385.59;;;7.96;81.62
57192;BME280;43052;52.588;13.396;2022-10-26T00:16:23;101399.56;;;8.01;81.68
57192;BME280;43052;52.588;13.396;2022-10-26T00:18:49;101403.91;;;8.02;81.67
57192;BME280;43052;52.588;13.396;2022-10-26T00:21:14;101377.69;;;7.90;81.42
57192;BME280;43052;52.588;13.396;2022-10-26T00:23:40;101387.22;;;7.88;81.41
57192;BME280;43052;52.588;13.396;2022-10-26T00:26:05;101390.66;;;7.87;81.68
57192;BME280;43052;52.588;13.396;2022-10-26T00:28:31;101415.09;;;7.95;81.39
57192;BME280;43052;52.588;13.396;2022-10-26T00:31:05;101389.69;;;7.80;81.41
57192;BME280;43052;52.588;13.396;2022-10-26T00:33:30;101397.50;;;7.81;81.55
57192;BME280;43052;52.588;13.396;2022-10-26T00:35:56;101418.47;;;7.89;81.21
57192;BME280;43052;52.588;13.396;2022-10-26T00:38:22;101414.06;;;7.85;81.45
57192;BME280;43052;52.588;13.396;2022-10-26T00:40:48;101418.41;;;7.84;81.26
57192;BME280;43052;52.588;13.396;2022-10-26T00:45:46;101425.34;;;7.84;81.50
57192;BME280;43052;52.588;13.396;2022-10-26T00:48:21;101422.69;;;7.82;81.67
57192;BME280;43052;52.588;13.396;2022-10-26T00:50:49;101415.56;;;7.69;81.42
57192;BME280;43052;52.588;13.396;2022-10-26T00:53:17;101419.94;;;7.73;81.54
57192;BME280;43052;52.588;13.396;2022-10-26T00:55:48;101415.59;;;7.72;81.45
57192;BME280;43052;52.588;13.396;2022-10-26T00:58:15;101413.81;;;7.69;81.29
57192;BME280;43052;52.588;13.396;2022-10-26T01:00:41;101395.47;;;7.62;81.49
57192;BME280;43052;52.588;13.396;2022-10-26T01:03:08;101400.78;;;7.68;81.55
57192;BME280;43052;52.588;13.396;2022-10-26T01:05:36;101406.84;;;7.68;81.42
57192;BME280;43052;52.588;13.396;2022-10-26T01:08:02;101410.34;;;7.69;81.19
57192;BME280;43052;52.588;13.396;2022-10-26T01:10:28;101411.19;;;7.68;81.33
57192;BME280;43052;52.588;13.396;2022-10-26T01:12:54;101398.84;;;7.56;81.18
57192;BME280;43052;52.588;13.396;2022-10-26T01:16:00;101402.38;;;7.60;81.25
57192;BME280;43052;52.588;13.396;2022-10-26T01:18:39;101409.44;;;7.67;81.23
57192;BME280;43052;52.588;13.396;2022-10-26T01:21:23;101402.47;;;7.66;81.26
57192;BME280;43052;52.588;13.396;2022-10-26T01:24:17;101399.78;;;7.61;81.24
57192;BME280;43052;52.588;13.396;2022-10-26T01:26:59;101405.00;;;7.61;81.17
57192;BME280;43052;52.588;13.396;2022-10-26T01:29:37;101397.09;;;7.57;81.29
57192;BME280;43052;52.588;13.396;2022-10-26T01:32:21;101400.59;;;7.57;81.04
57192;BME280;43052;52.588;13.396;2022-10-26T01:34:56;101394.47;;;7.53;81.04
57192;BME280;43052;52.588;13.396;2022-10-26T01:37:28;101397.84;;;7.48;80.98
57192;BME280;43052;52.588;13.396;2022-10-26T01:40:05;101364.59;;;7.31;81.13
57192;BME280;43052;52.588;13.396;2022-10-26T01:42:34;101393.41;;;7.42;81.42
57192;BME280;43052;52.588;13.396;2022-10-26T01:45:06;101360.09;;;7.22;81.36
57192;BME280;43052;52.588;13.396;2022-10-26T01:47:33;101381.22;;;7.40;81.51
57192;BME280;43052;52.588;13.396;2022-10-26T01:50:00;101355.97;;;7.34;81.49
57192;BME280;43052;52.588;13.396;2022-10-26T01:52:26;101388.47;;;7.58;81.96
57192;BME280;43052;52.588;13.396;2022-10-26T01:54:59;101372.78;;;7.55;81.83
57192;BME280;43052;52.588;13.396;2022-10-26T01:57:24;101372.69;;;7.48;81.83
57192;BME280;43052;52.588;13.396;2022-10-26T01:59:56;101380.63;;;7.56;81.71
57192;BME280;43052;52.588;13.396;2022-10-26T02:08:31;101381.31;;;7.44;81.41
57192;BME280;43052;52.588;13.396;2022-10-26T02:11:11;101362.94;;;7.36;81.51
57192;BME280;43052;52.588;13.396;2022-10-26T02:13:47;101375.09;;;7.37;81.51
57192;BME280;43052;52.588;13.396;2022-10-26T02:19:20;101368.16;;;7.36;81.55
57192;BME280;43052;52.588;13.396;2022-10-26T02:21:59;101365.41;;;7.29;81.73
57192;BME280;43052;52.588;13.396;2022-10-26T02:24:30;101358.34;;;7.21;81.58
57192;BME280;43052;52.588;13.396;2022-10-26T02:26:58;101374.97;;;7.30;81.72
57192;BME280;43052;52.588;13.396;2022-10-26T02:29:27;101361.78;;;7.19;81.37
57192;BME280;43052;52.588;13.396;2022-10-26T02:31:54;101363.53;;;7.21;81.55
57192;BME280;43052;52.588;13.396;2022-10-26T02:34:23;101355.63;;;7.15;81.54
57192;BME280;43052;52.588;13.396;2022-10-26T02:36:52;101351.34;;;7.17;81.54
57192;BME280;43052;52.588;13.396;2022-10-26T02:39:19;101339.94;;;7.11;81.18
57192;BME280;43052;52.588;13.396;2022-10-26T02:41:46;101352.94;;;7.11;81.48
57192;BME280;43052;52.588;13.396;2022-10-26T02:44:25;101366.97;;;7.17;81.21
57192;BME280;43052;52.588;13.396;2022-10-26T02:46:52;101355.47;;;7.06;81.35
57192;BME280;43052;52.588;13.396;2022-10-26T02:49:18;101357.16;;;7.04;81.39
57192;BME280;43052;52.588;13.396;2022-10-26T02:51:46;101373.84;;;7.15;81.38
57192;BME280;43052;52.588;13.396;2022-10-26T02:54:18;101373.75;;;7.09;81.48
57192;BME280;43052;52.588;13.396;2022-10-26T02:56:55;101385.19;;;7.19;81.81
57192;BME280;43052;52.588;13.396;2022-10-26T02:59:25;101386.88;;;7.17;81.39
57192;BME280;43052;52.588;13.396;2022-10-26T03:01:52;101370.97;;;7.01;81.39
57192;BME280;43052;52.588;13.396;2022-10-26T03:04:17;101370.06;;;6.99;81.67
57192;BME280;43052;52.588;13.396;2022-10-26T03:06:51;101392.72;;;7.05;81.80
57192;BME280;43052;52.588;13.396;2022-10-26T03:09:16;101388.28;;;6.99;81.76
57192;BME280;43052;52.588;13.396;2022-10-26T03:11:41;101357.75;;;6.89;81.36
57192;BME280;43052;52.588;13.396;2022-10-26T03:14:06;101375.25;;;6.98;81.63
57192;BME280;43052;52.588;13.396;2022-10-26T03:16:32;101370.78;;;6.90;81.55
57192;BME280;43052;52.588;13.396;2022-10-26T03:18:57;101377.75;;;6.92;81.77
57192;BME280;43052;52.588;13.396;2022-10-26T03:21:22;101373.41;;;6.92;81.74
57192;BME280;43052;52.588;13.396;2022-10-26T03:23:47;101375.94;;;6.89;81.51
57192;BME280;43052;52.588;13.396;2022-10-26T03:26:14;101388.16;;;6.92;81.71
57192;BME280;43052;52.588;13.396;2022-10-26T03:28:39;101385.53;;;6.92;81.56
57192;BME280;43052;52.588;13.396;2022-10-26T03:31:05;101391.63;;;6.92;81.41
57192;BME280;43052;52.588;13.396;2022-10-26T03:33:30;101382.06;;;6.91;81.36
57192;BME280;43052;52.588;13.396;2022-10-26T03:35:55;101383.72;;;6.87;81.52
57192;BME280;43052;52.588;13.396;2022-10-26T03:38:21;101384.56;;;6.86;81.41
57192;BME280;43052;52.588;13.396;2022-10-26T03:40:46;101384.53;;;6.85;81.37
57192;BME280;43052;52.588;13.396;2022-10-26T03:43:12;101397.69;;;6.93;81.28
57192;BME280;43052;52.588;13.396;2022-10-26T03:45:37;101379.28;;;6.83;81.24
57192;BME280;43052;52.588;13.396;2022-10-26T03:48:03;101384.53;;;6.85;81.43
57192;BME280;43052;52.588;13.396;2022-10-26T03:50:28;101369.78;;;6.82;81.67
57192;BME280;43052;52.588;13.396;2022-10-26T03:52:53;101387.22;;;6.89;81.59
57192;BME280;43052;52.588;13.396;2022-10-26T03:55:18;101390.69;;;6.90;81.46
57192;BME280;43052;52.588;13.396;2022-10-26T03:57:44;101382.03;;;6.89;81.55
57192;BME280;43052;52.588;13.396;2022-10-26T04:00:12;101388.91;;;6.87;81.28
57192;BME280;43052;52.588;13.396;2022-10-26T04:02:39;101374.81;;;6.74;81.56
57192;BME280;43052;52.588;13.396;2022-10-26T04:05:05;101382.72;;;6.81;81.54
57192;BME280;43052;52.588;13.396;2022-10-26T04:07:30;101368.75;;;6.74;81.49
57192;BME280;43052;52.588;13.396;2022-10-26T04:09:55;101393.28;;;6.90;81.31
57192;BME280;43052;52.588;13.396;2022-10-26T04:12:21;101385.41;;;6.85;81.34
57192;BME280;43052;52.588;13.396;2022-10-26T04:14:46;101376.66;;;6.82;81.50
57192;BME280;43052;52.588;13.396;2022-10-26T04:17:11;101379.16;;;6.76;81.29
57192;BME280;43052;52.588;13.396;2022-10-26T04:19:36;101378.25;;;6.75;81.23
57192;BME280;43052;52.588;13.396;2022-10-26T04:22:01;101383.47;;;6.75;81.67
57192;BME280;43052;52.588;13.396;2022-10-26T04:24:27;101381.66;;;6.71;81.63
57192;BME280;43052;52.588;13.396;2022-10-26T04:26:52;101384.34;;;6.74;81.62
57192;BME280;43052;52.588;13.396;2022-10-26T04:29:17;101379.97;;;6.73;81.64
57192;BME280;43052;52.588;13.396;2022-10-26T04:31:42;101387.72;;;6.71;81.83
57192;BME280;43052;52.588;13.396;2022-10-26T04:34:08;101384.25;;;6.71;81.64
57192;BME280;43052;52.588;13.396;2022-10-26T04:36:33;101396.53;;;6.78;81.54
57192;BME280;43052;52.588;13.396;2022-10-26T04:38:59;101374.63;;;6.65;81.64
57192;BME280;43052;52.588;13.396;2022-10-26T04:41:24;101385.09;;;6.68;81.52
57192;BME280;43052;52.588;13.396;2022-10-26T04:43:49;101398.19;;;6.74;81.36
57192;BME280;43052;52.588;13.396;2022-10-26T04:46:15;101377.28;;;6.68;81.41
57192;BME280;43052;52.588;13.396;2022-10-26T04:48:40;101383.38;;;6.70;81.47
57192;BME280;43052;52.588;13.396;2022-10-26T04:51:05;101398.22;;;6.76;81.40
57192;BME280;43052;52.588;13.396;2022-10-26T04:53:30;101396.47;;;6.75;81.31
57192;BME280;43052;52.588;13.396;2022-10-26T04:55:57;101397.25;;;6.69;80.93
57192;BME280;43052;52.588;13.396;2022-10-26T04:58:22;101398.88;;;6.66;81.31
57192;BME280;43052;52.588;13.396;2022-10-26T05:00:47;101377.75;;;6.50;81.26
57192;BME280;43052;52.588;13.396;2022-10-26T05:03:13;101393.53;;;6.58;81.45
57192;BME280;43052;52.588;13.396;2022-10-26T05:05:38;101388.41;;;6.61;81.48
57192;BME280;43052;52.588;13.396;2022-10-26T05:08:03;101381.47;;;6.62;81.48
57192;BME280;43052;52.588;13.396;2022-10-26T05:10:29;101369.25;;;6.57;81.49
57192;BME280;43052;52.588;13.396;2022-10-26T05:12:56;101399.88;;;6.72;81.80
57192;BME280;43052;52.588;13.396;2022-10-26T05:15:22;101378.06;;;6.66;81.84
57192;BME280;43052;52.588;13.396;2022-10-26T05:17:54;101374.59;;;6.64;81.94
57192;BME280;43052;52.588;13.396;2022-10-26T05:20:20;101388.66;;;6.75;81.68
57192;BME280;43052;52.588;13.396;2022-10-26T05:22:51;101391.25;;;6.73;81.66
57192;BME280;43052;52.588;13.396;2022-10-26T05:25:17;101389.47;;;6.71;81.60
57192;BME280;43052;52.588;13.396;2022-10-26T05:27:42;101384.06;;;6.62;81.95
57192;BME280;43052;52.588;13.396;2022-10-26T05:30:07;101397.25;;;6.69;81.55
57192;BME280;43052;52.588;13.396;2022-10-26T05:32:33;101390.13;;;6.61;81.88
57192;BME280;43052;52.588;13.396;2022-10-26T05:34:58;101399.75;;;6.65;81.88
57192;BME280;43052;52.588;13.396;2022-10-26T05:37:23;101390.00;;;6.54;81.85
57192;BME280;43052;52.588;13.396;2022-10-26T05:39:48;101404.84;;;6.60;81.74
57192;BME280;43052;52.588;13.396;2022-10-26T05:42:13;101386.47;;;6.52;81.56
57192;BME280;43052;52.588;13.396;2022-10-26T05:44:39;101389.16;;;6.55;81.69
57192;BME280;43052;52.588;13.396;2022-10-26T05:47:05;101399.66;;;6.62;81.51
57192;BME280;43052;52.588;13.396;2022-10-26T05:49:30;101395.28;;;6.59;81.79
57192;BME280;43052;52.588;13.396;2022-10-26T05:51:55;101401.63;;;6.72;81.99
57192;BME280;43052;52.588;13.396;2022-10-26T05:54:21;101405.28;;;6.83;81.59
57192;BME280;43052;52.588;13.396;2022-10-26T05:56:46;101400.97;;;6.84;81.43
57192;BME280;43052;52.588;13.396;2022-10-26T05:59:13;101409.03;;;6.96;81.24
57192;BME280;43052;52.588;13.396;2022-10-26T06:04:43;101405.72;;;7.05;81.13
57192;BME280;43052;52.588;13.396;2022-10-26T06:07:14;101411.75;;;7.02;80.87
57192;BME280;43052;52.588;13.396;2022-10-26T06:09:40;101416.28;;;7.13;81.04
57192;BME280;43052;52.588;13.396;2022-10-26T06:12:07;101420.69;;;7.17;81.07
57192;BME280;43052;52.588;13.396;2022-10-26T06:14:33;101415.66;;;7.26;80.58
57192;BME280;43052;52.588;13.396;2022-10-26T06:19:55;101415.06;;;7.40;80.58
57192;BME280;43052;52.588;13.396;2022-10-26T06:22:35;101402.97;;;7.43;80.20
57192;BME280;43052;52.588;13.396;2022-10-26T06:25:26;101404.97;;;7.60;80.26
57192;BME280;43052;52.588;13.396;2022-10-26T06:30:39;101414.63;;;8.21;79.77
57192;BME280;43052;52.588;13.396;2022-10-26T06:33:04;101409.69;;;8.42;80.05
57192;BME280;43052;52.588;13.396;2022-10-26T06:35:36;101413.16;;;9.09;79.67
57192;BME280;43052;52.588;13.396;2022-10-26T06:38:10;101434.38;;;10.54;77.82
57192;BME280;43052;52.588;13.396;2022-10-26T06:40:39;101419.91;;;11.83;75.68
57192;BME280;43052;52.588;13.396;2022-10-26T06:43:21;101414.31;;;13.12;73.25
57192;BME280;43052;52.588;13.396;2022-10-26T06:46:05;101410.78;;;14.25;71.32
57192;BME280;43052;52.588;13.396;2022-10-26T06:51:19;101423.59;;;16.34;65.76
57192;BME280;43052;52.588;13.396;2022-10-26T06:54:05;101402.78;;;17.06;63.80
57192;BME280;43052;52.588;13.396;2022-10-26T06:56:35;101412.88;;;18.02;60.48
57192;BME280;43052;52.588;13.396;2022-10-26T06:59:07;101416.59;;;18.59;58.33
57192;BME280;43052;52.588;13.396;2022-10-26T07:01:32;101420.88;;;19.23;56.44
57192;BME280;43052;52.588;13.396;2022-10-26T07:03:57;101416.81;;;19.68;53.25
57192;BME280;43052;52.588;13.396;2022-10-26T07:06:24;101405.91;;;20.04;49.75
57192;BME280;43052;52.588;13.396;2022-10-26T07:08:49;101413.16;;;20.25;49.73
57192;BME280;43052;52.588;13.396;2022-10-26T07:11:14;101409.00;;;20.65;49.50
57192;BME280;43052;52.588;13.396;2022-10-26T07:13:39;101415.34;;;21.08;47.79
57192;BME280;43052;52.588;13.396;2022-10-26T07:16:05;101407.00;;;21.64;46.90
57192;BME280;43052;52.588;13.396;2022-10-26T07:18:30;101411.84;;;22.36;45.22
57192;BME280;43052;52.588;13.396;2022-10-26T07:20:57;101400.50;;;23.09;42.96
57192;BME280;43052;52.588;13.396;2022-10-26T07:23:23;101416.03;;;23.74;41.86
57192;BME280;43052;52.588;13.396;2022-10-26T07:25:48;101418.59;;;24.29;40.27
57192;BME280;43052;52.588;13.396;2022-10-26T07:28:14;101415.25;;;24.59;38.54
57192;BME280;43052;52.588;13.396;2022-10-26T07:30:39;101409.63;;;24.81;37.84
57192;BME280;43052;52.588;13.396;2022-10-26T07:33:10;101413.28;;;25.26;37.37
57192;BME280;43052;52.588;13.396;2022-10-26T07:35:35;101412.03;;;25.94;36.54
57192;BME280;43052;52.588;13.396;2022-10-26T07:38:01;101413.34;;;26.47;35.90
57192;BME280;43052;52.588;13.396;2022-10-26T07:40:27;101407.94;;;27.04;34.10
57192;BME280;43052;52.588;13.396;2022-10-26T07:42:55;101408.72;;;27.74;33.87
57192;BME280;43052;52.588;13.396;2022-10-26T07:45:21;101389.53;;;28.32;32.00
57192;BME280;43052;52.588;13.396;2022-10-26T07:47:48;101405.91;;;28.92;30.07
57192;BME280;43052;52.588;13.396;2022-10-26T07:50:13;101399.94;;;29.24;29.93
57192;BME280;43052;52.588;13.396;2022-10-26T07:52:38;101413.94;;;29.53;29.54
57192;BME280;43052;52.588;13.396;2022-10-26T07:55:07;101401.53;;;29.75;28.93
57192;BME280;43052;52.588;13.396;2022-10-26T07:57:33;101398.09;;;30.09;28.56
57192;BME280;43052;52.588;13.396;2022-10-26T07:59:58;101415.03;;;30.56;28.15
57192;BME280;43052;52.588;13.396;2022-10-26T08:02:24;101410.22;;;30.94;27.90
57192;BME280;43052;52.588;13.396;2022-10-26T08:04:49;101394.56;;;31.20;26.63
57192;BME280;43052;52.588;13.396;2022-10-26T08:07:15;101402.50;;;31.54;26.54
57192;BME280;43052;52.588;13.396;2022-10-26T08:09:40;101405.38;;;31.74;26.19
57192;BME280;43052;52.588;13.396;2022-10-26T08:12:05;101412.03;;;32.12;26.04
57192;BME280;43052;52.588;13.396;2022-10-26T08:14:30;101414.34;;;32.79;24.65
57192;BME280;43052;52.588;13.396;2022-10-26T08:16:56;101409.44;;;33.23;24.09
57192;BME280;43052;52.588;13.396;2022-10-26T08:19:21;101410.84;;;33.57;23.11
57192;BME280;43052;52.588;13.396;2022-10-26T08:21:46;101410.00;;;33.56;23.20
57192;BME280;43052;52.588;13.396;2022-10-26T08:24:11;101413.13;;;33.71;23.65
57192;BME280;43052;52.588;13.396;2022-10-26T08:26:37;101407.47;;;34.12;22.92
57192;BME280;43052;52.588;13.396;2022-10-26T08:29:02;101422.75;;;34.61;22.16
57192;BME280;43052;52.588;13.396;2022-10-26T08:31:27;101420.59;;;34.82;22.16
57192;BME280;43052;52.588;13.396;2022-10-26T08:33:56;101399.94;;;34.99;21.63
57192;BME280;43052;52.588;13.396;2022-10-26T08:36:47;101367.97;;;35.11;21.46
57192;BME280;43052;52.588;13.396;2022-10-26T08:39:51;101418.84;;;35.82;21.34
57192;BME280;43052;52.588;13.396;2022-10-26T08:42:52;101417.06;;;36.17;20.40
57192;BME280;43052;52.588;13.396;2022-10-26T08:53:08;101410.81;;;37.52;19.59
57192;BME280;43052;52.588;13.396;2022-10-26T08:59:33;101408.03;;;38.09;19.08
57192;BME280;43052;52.588;13.396;2022-10-26T09:06:08;101341.28;;;37.64;18.47
57192;BME280;43052;52.588;13.396;2022-10-26T09:12:27;101396.44;;;38.55;17.89
57192;BME280;43052;52.588;13.396;2022-10-26T09:18:48;101411.00;;;39.34;17.46
57192;BME280;43052;52.588;13.396;2022-10-26T09:21:47;101414.72;;;39.18;17.16
57192;BME280;43052;52.588;13.396;2022-10-26T09:24:27;101415.94;;;38.84;17.22
57192;BME280;43052;52.588;13.396;2022-10-26T09:29:39;101412.47;;;39.22;16.91
57192;BME280;43052;52.588;13.396;2022-10-26T09:32:09;101420.63;;;38.67;17.66
57192;BME280;43052;52.588;13.396;2022-10-26T09:34:42;101422.50;;;38.66;17.47
57192;BME280;43052;52.588;13.396;2022-10-26T09:37:42;101426.22;;;38.82;17.50
57192;BME280;43052;52.588;13.396;2022-10-26T09:40:24;101426.53;;;38.87;16.13
57192;BME280;43052;52.588;13.396;2022-10-26T09:42:56;101417.28;;;38.00;17.83
57192;BME280;43052;52.588;13.396;2022-10-26T09:45:29;101421.25;;;37.73;17.48
57192;BME280;43052;52.588;13.396;2022-10-26T09:47:59;101420.16;;;36.99;18.70
57192;BME280;43052;52.588;13.396;2022-10-26T09:50:33;101418.00;;;37.44;18.63
57192;BME280;43052;52.588;13.396;2022-10-26T09:52:58;101425.81;;;37.81;17.94
57192;BME280;43052;52.588;13.396;2022-10-26T09:55:24;101434.19;;;37.79;17.54
57192;BME280;43052;52.588;13.396;2022-10-26T09:57:53;101419.38;;;37.40;18.12
57192;BME280;43052;52.588;13.396;2022-10-26T10:00:21;101430.25;;;37.24;17.97
57192;BME280;43052;52.588;13.396;2022-10-26T10:02:57;101427.50;;;37.15;18.59
57192;BME280;43052;52.588;13.396;2022-10-26T10:05:23;101427.50;;;37.24;17.97
57192;BME280;43052;52.588;13.396;2022-10-26T10:07:49;101426.13;;;37.03;18.84
57192;BME280;43052;52.588;13.396;2022-10-26T10:10:17;101418.13;;;37.02;18.06
57192;BME280;43052;52.588;13.396;2022-10-26T10:12:44;101434.75;;;36.47;18.87
57192;BME280;43052;52.588;13.396;2022-10-26T10:15:21;101441.44;;;36.00;18.98
57192;BME280;43052;52.588;13.396;2022-10-26T10:17:51;101418.53;;;35.85;19.05
57192;BME280;43052;52.588;13.396;2022-10-26T10:20:37;101441.66;;;35.63;19.51
57192;BME280;43052;52.588;13.396;2022-10-26T10:23:03;101428.63;;;34.84;20.44
57192;BME280;43052;52.588;13.396;2022-10-26T10:25:38;101425.19;;;34.82;20.67
57192;BME280;43052;52.588;13.396;2022-10-26T10:28:24;101434.09;;;35.02;20.41
57192;BME280;43052;52.588;13.396;2022-10-26T10:30:58;101426.91;;;34.83;20.43
57192;BME280;43052;52.588;13.396;2022-10-26T10:33:38;101423.38;;;33.97;21.54
57192;BME280;43052;52.588;13.396;2022-10-26T10:36:09;101428.34;;;33.13;22.61
57192;BME280;43052;52.588;13.396;2022-10-26T10:38:39;101427.91;;;31.63;24.05
57192;BME280;43052;52.588;13.396;2022-10-26T10:41:14;101430.81;;;29.31;27.64
57192;BME280;43052;52.588;13.396;2022-10-26T10:43:46;101430.28;;;26.76;30.97
57192;BME280;43052;52.588;13.396;2022-10-26T10:46:17;101424.09;;;25.09;34.14
57192;BME280;43052;52.588;13.396;2022-10-26T10:48:51;101428.59;;;23.90;36.67
57192;BME280;43052;52.588;13.396;2022-10-26T10:51:19;101416.66;;;22.87;38.52
57192;BME280;43052;52.588;13.396;2022-10-26T10:53:49;101425.72;;;22.03;40.32
57192;BME280;43052;52.588;13.396;2022-10-26T10:56:36;101431.09;;;21.37;41.67
57192;BME280;43052;52.588;13.396;2022-10-26T11:01:46;101415.50;;;21.05;42.73
57192;BME280;43052;52.588;13.396;2022-10-26T11:04:26;101426.81;;;21.10;42.64
57192;BME280;43052;52.588;13.396;2022-10-26T11:06:59;101416.78;;;20.71;43.62
57192;BME280;43052;52.588;13.396;2022-10-26T11:09:30;101429.44;;;20.39;44.39
57192;BME280;43052;52.588;13.396;2022-10-26T11:12:00;101419.34;;;19.98;45.11
57192;BME280;43052;52.588;13.396;2022-10-26T11:14:34;101434.00;;;19.56;46.06
57192;BME280;43052;52.588;13.396;2022-10-26T11:17:21;101438.72;;;19.18;47.03
57192;BME280;43052;52.588;13.396;2022-10-26T11:19:53;101429.91;;;18.88;47.57
57192;BME280;43052;52.588;13.396;2022-10-26T11:22:24;101432.94;;;18.74;48.60
57192;BME280;43052;52.588;13.396;2022-10-26T11:24:59;101427.34;;;18.53;48.94
57192;BME280;43052;52.588;13.396;2022-10-26T11:27:46;101417.50;;;18.27;49.94
57192;BME280;43052;52.588;13.396;2022-10-26T11:30:20;101424.72;;;18.20;49.63
57192;BME280;43052;52.588;13.396;2022-10-26T11:32:54;101417.81;;;18.14;50.11
57192;BME280;43052;52.588;13.396;2022-10-26T11:35:28;101414.56;;;18.05;51.68
57192;BME280;43052;52.588;13.396;2022-10-26T11:38:13;101416.81;;;17.84;51.79
57192;BME280;43052;52.588;13.396;2022-10-26T11:41:10;101411.63;;;17.79;51.84
57192;BME280;43052;52.588;13.396;2022-10-26T11:43:44;101411.84;;;17.72;52.49
57192;BME280;43052;52.588;13.396;2022-10-26T11:46:17;101416.41;;;17.65;52.12
57192;BME280;43052;52.588;13.396;2022-10-26T11:51:18;101416.53;;;17.59;52.33
57192;BME280;43052;52.588;13.396;2022-10-26T11:53:46;101412.41;;;17.48;53.31
57192;BME280;43052;52.588;13.396;2022-10-26T11:56:23;101393.34;;;17.34;53.22
57192;BME280;43052;52.588;13.396;2022-10-26T11:58:51;101409.03;;;17.42;53.25
57192;BME280;43052;52.588;13.396;2022-10-26T12:01:17;101401.16;;;17.40;53.38
57192;BME280;43052;52.588;13.396;2022-10-26T12:03:46;101397.50;;;17.44;53.38
57192;BME280;43052;52.588;13.396;2022-10-26T12:06:13;101403.00;;;17.36;53.70
57192;BME280;43052;52.588;13.396;2022-10-26T12:08:44;101386.53;;;17.25;54.06
57192;BME280;43052;52.588;13.396;2022-10-26T12:11:37;101399.53;;;17.34;54.47
57192;BME280;43052;52.588;13.396;2022-10-26T12:14:39;101376.84;;;17.24;54.48
57192;BME280;43052;52.588;13.396;2022-10-26T12:17:14;101394.13;;;17.39;54.40
57192;BME280;43052;52.588;13.396;2022-10-26T12:19:54;101351.44;;;17.18;54.37
57192;BME280;43052;52.588;13.396;2022-10-26T12:22:32;101387.94;;;17.40;54.47
57192;BME280;43052;52.588;13.396;2022-10-26T12:35:25;101377.50;;;17.34;54.20
57192;BME280;43052;52.588;13.396;2022-10-26T12:37:47;101380.00;;;17.40;54.81
57192;BME280;43052;52.588;13.396;2022-10-26T12:40:40;101378.25;;;17.39;54.38
57192;BME280;43052;52.588;13.396;2022-10-26T12:45:37;101389.53;;;17.46;54.34
57192;BME280;43052;52.588;13.396;2022-10-26T12:48:04;101378.16;;;17.42;54.79
57192;BME280;43052;52.588;13.396;2022-10-26T12:50:44;101377.31;;;17.42;54.91
57192;BME280;43052;52.588;13.396;2022-10-26T12:53:12;101371.16;;;17.41;55.00
57192;BME280;43052;52.588;13.396;2022-10-26T12:58:33;101381.75;;;17.39;55.12
57192;BME280;43052;52.588;13.396;2022-10-26T13:03:45;101389.53;;;17.46;54.80
57192;BME280;43052;52.588;13.396;2022-10-26T13:09:06;101387.88;;;17.42;54.98
57192;BME280;43052;52.588;13.396;2022-10-26T13:11:37;101371.25;;;17.38;55.13
57192;BME280;43052;52.588;13.396;2022-10-26T13:14:18;101362.53;;;17.33;55.40
57192;BME280;43052;52.588;13.396;2022-10-26T13:16:45;101376.44;;;17.41;55.38
57192;BME280;43052;52.588;13.396;2022-10-26T13:19:31;101371.25;;;17.38;55.74
57192;BME280;43052;52.588;13.396;2022-10-26T13:21:58;101376.41;;;17.43;55.65
57192;BME280;43052;52.588;13.396;2022-10-26T13:24:26;101364.28;;;17.34;55.24
57192;BME280;43052;52.588;13.396;2022-10-26T13:29:31;101352.00;;;17.31;55.44
57192;BME280;43052;52.588;13.396;2022-10-26T13:31:57;101384.25;;;17.46;55.47
57192;BME280;43052;52.588;13.396;2022-10-26T13:34:27;101381.72;;;17.41;55.79
57192;BME280;43052;52.588;13.396;2022-10-26T13:37:00;101386.09;;;17.44;55.50
57192;BME280;43052;52.588;13.396;2022-10-26T13:39:34;101384.34;;;17.41;56.11
57192;BME280;43052;52.588;13.396;2022-10-26T13:42:01;101390.59;;;17.40;55.78
57192;BME280;43052;52.588;13.396;2022-10-26T13:47:00;101391.50;;;17.37;56.22
57192;BME280;43052;52.588;13.396;2022-10-26T13:49:38;101390.59;;;17.38;56.34
57192;BME280;43052;52.588;13.396;2022-10-26T13:52:05;101398.47;;;17.42;56.10
57192;BME280;43052;52.588;13.396;2022-10-26T13:54:50;101389.91;;;17.32;56.43
57192;BME280;43052;52.588;13.396;2022-10-26T13:57:27;101391.66;;;17.31;56.50
57192;BME280;43052;52.588;13.396;2022-10-26T13:59:56;101393.44;;;17.31;56.49
57192;BME280;43052;52.588;13.396;2022-10-26T14:02:25;101393.34;;;17.34;56.82
57192;BME280;43052;52.588;13.396;2022-10-26T14:05:03;101397.78;;;17.33;56.74
57192;BME280;43052;52.588;13.396;2022-10-26T14:07:40;101399.59;;;17.31;57.21
57192;BME280;43052;52.588;13.396;2022-10-26T14:10:06;101401.31;;;17.32;56.91
57192;BME280;43052;52.588;13.396;2022-10-26T14:12:31;101395.34;;;17.24;56.84
57192;BME280;43052;52.588;13.396;2022-10-26T14:15:04;101396.22;;;17.25;57.35
57192;BME280;43052;52.588;13.396;2022-10-26T14:17:31;101399.66;;;17.28;57.21
57192;BME280;43052;52.588;13.396;2022-10-26T14:19:57;101387.47;;;17.22;56.94
57192;BME280;43052;52.588;13.396;2022-10-26T14:22:25;101407.66;;;17.25;57.24